KOKM

Okmulgee Regional Airport

Okmulgee, Oklahoma, USA
METAR KOKM 190655Z AUTO 19006KT 10SM CLR 00/M10 A3021 RMK AO2 T00011098
Observed Flight Rules
Jan-19 @ 06:55 UTC (20 minutes ago) Visual Flight Rules
Wind Visibility Clouds
190° at 6 knots 10 miles
  • Clear skies
Temperatures Readings
Current 0°C / 32°F
Dewpoint -10°C / 14°F
Humidity 47%
Altimeter 30.21" Hg
Pressure 1023 hPa
Elevation 220
METAR KOKM 190655Z AUTO 19006KT 10SM CLR 00/M10 A3021 RMK AO2 T00011098
Observed Flight Rules
Jan-19 @ 06:55 UTC
(20 minutes ago)
VFR
Wind Visibility
190° at 6 knots 10 miles
Clouds
  • Clear skies
Temperature Dewpoint
0°C / 32°F -10°C / 14°F
Humidity Altimeter Pressure
47% 30.21" Hg 1023 hPa